Moree Mo, New South Wales

3:03 PM AEDT on January 27, 2015 (GMT +1100)
Moree | Change Station
CLOSE
Current Station
Airport
Location: Moree Airport, NSW,
Elevation: 699 ft
Nearby Weather Stations

Elev 699 ft 29.50 °S, 149.85 °E | Updated 1 hour ago

Mostly Cloudy
Mostly Cloudy
88 °F
Feels Like 88 °F
N
16
Wind Variable Wind from North

Today
High -- | Low -- °F
--% Chance of Precip.
Yesterday
High -- | Low -- °F
Precip. -- in
6:25 AM 8:01 PM
Waxing Crescent, 50% visible
Pressure 29.68 in
Visibility 6.2 miles
Clouds Few 5000 ft
Mostly Cloudy 5000 ft
Mostly Cloudy 8500 ft
Heat Index 88 °F
Dew Point 63 °F
Humidity 43%
Rainfall 0.00 in
Snow Depth Not available.
UV 6 out of 12
Pollen Not available.
Air Quality Not available.
Flu Activity Not available.
METAR YMOR 270300Z 36014KT 9999 VCSH FEW050CB BKN050 BKN085 31/17 Q1005

More Conditions Fewer Conditions

Pressure 29.68 in
Visibility 6.2 miles
Clouds Few 5000 ft
Mostly Cloudy 5000 ft
Mostly Cloudy 8500 ft
Heat Index 88 °F
Dew Point 63 °F
Humidity 43%
Rainfall 0.00 in
Snow Depth Not available.
UV 6 out of 12
Pollen Not available.
Air Quality Not available.
Flu Activity Not available.
METAR YMOR 270300Z 36014KT 9999 VCSH FEW050CB BKN050 BKN085 31/17 Q1005

More Conditions Fewer Conditions

10-Day Weather Forecast

Almanac

Astronomy

Jan. 27, 2015 Rise Set
Actual Time
Civil Twilight
Nautical Twilight
Astronomical Twilight
Moon
Length of Visible Light
Length of Day
Tomorrow will be .
, % of the Moon is Illuminated

Today's Extremes

Country Highs Country Lows

Community

WunderPhotos

Upload Photos

1,790,520 photos uploaded!

WunderBlogs® & News

Nearby

Air Quality

  Air Quality AQ Index Pollutant
Not available.

Snow Depth

Station Depth Elevation

Earthquake Activity

City Distance Mag. Time & Date
Minimum magnitude displayed is 2.5.

Coastal Water Temperatures

Place Temperature

Nearby Weather Stations